Time;durP1;ratioP1;P1;durP2;ratioP2;P2;SDS_P1;SDS_P2;PMS_P1;PMS_P2;Temp;Humidity;BMP_temperature;BMP_pressure;BME280_temperature;BME280_humidity;BME280_pressure;Samples;Min_cycle;Max_cycle;Signal;HPM_P1;HPM_P2
2022/11/14 00:04:59;;;;;;;5.25;4.20;;;;;;;;;;10363487;28;20061;-58
2022/11/14 00:10:00;;;;;;;5.20;4.63;;;;;;;;;;10372232;28;20032;-58
2022/11/14 00:15:01;;;;;;;9.77;4.43;;;;;;;;;;10373607;28;20116;-58
2022/11/14 00:20:04;;;;;;;6.72;4.35;;;;;;;;;;10372580;28;20038;-59
2022/11/14 00:25:05;;;;;;;4.50;4.10;;;;;;;;;;10373217;28;20072;-60
2022/11/14 00:30:07;;;;;;;6.22;4.63;;;;;;;;;;10372435;28;20484;-59
2022/11/14 00:35:08;;;;;;;7.03;4.20;;;;;;;;;;10373086;28;20030;-59
2022/11/14 00:40:09;;;;;;;4.70;3.72;;;;;;;;;;10372811;28;20014;-59
2022/11/14 00:45:10;;;;;;;6.22;4.43;;;;;;;;;;10372042;28;20555;-59
2022/11/14 00:50:11;;;;;;;5.72;4.07;;;;;;;;;;10371828;28;20064;-59
2022/11/14 00:55:11;;;;;;;5.80;4.32;;;;;;;;;;10372393;28;20216;-58
2022/11/14 01:00:13;;;;;;;4.38;3.97;;;;;;;;;;10371285;28;20033;-58
2022/11/14 01:05:14;;;;;;;5.78;4.10;;;;;;;;;;10371214;28;20200;-59
2022/11/14 01:10:16;;;;;;;4.90;3.67;;;;;;;;;;10371728;28;20504;-59
2022/11/14 01:15:16;;;;;;;7.28;4.38;;;;;;;;;;10369260;28;20102;-59
2022/11/14 01:20:17;;;;;;;4.25;3.85;;;;;;;;;;10369260;28;20133;-60
2022/11/14 01:25:18;;;;;;;4.43;4.03;;;;;;;;;;10370524;28;20485;-59
2022/11/14 01:30:18;;;;;;;6.82;4.10;;;;;;;;;;10370372;28;20477;-60
2022/11/14 01:35:19;;;;;;;4.65;4.18;;;;;;;;;;10368674;28;20520;-59
2022/11/14 01:40:19;;;;;;;4.05;3.63;;;;;;;;;;10367111;28;20371;-57
2022/11/14 01:45:55;;;;;;;4.38;3.63;;;;;;;;;;10370183;28;20433;-58
2022/11/14 01:51:13;;;;;;;6.30;4.00;;;;;;;;;;10361027;28;20143;-57
2022/11/14 01:56:19;;;;;;;3.70;3.40;;;;;;;;;;10369371;28;20022;-57
2022/11/14 02:01:20;;;;;;;4.30;3.90;;;;;;;;;;10368266;28;20026;-58
2022/11/14 02:06:24;;;;;;;4.47;4.07;;;;;;;;;;10366917;28;20053;-58
2022/11/14 02:11:29;;;;;;;5.85;3.60;;;;;;;;;;10366472;28;20057;-59
2022/11/14 02:16:29;;;;;;;5.65;4.07;;;;;;;;;;10369156;28;20045;-60
2022/11/14 02:21:30;;;;;;;4.25;3.85;;;;;;;;;;10367393;28;20557;-60
2022/11/14 02:26:31;;;;;;;4.05;3.67;;;;;;;;;;10367725;28;20025;-60
2022/11/14 02:31:32;;;;;;;4.85;3.88;;;;;;;;;;10367063;28;20088;-60
2022/11/14 02:36:32;;;;;;;4.15;3.75;;;;;;;;;;10368818;28;20116;-59
2022/11/14 02:41:33;;;;;;;4.40;3.83;;;;;;;;;;10363786;28;20111;-59
2022/11/14 02:46:34;;;;;;;4.15;3.75;;;;;;;;;;10366870;28;20038;-59
2022/11/14 02:51:34;;;;;;;4.18;3.78;;;;;;;;;;10366728;28;20030;-59
2022/11/14 02:56:35;;;;;;;3.95;3.55;;;;;;;;;;10367436;28;20026;-59
2022/11/14 03:01:36;;;;;;;4.65;3.80;;;;;;;;;;10367235;28;20080;-58
2022/11/14 03:06:36;;;;;;;4.20;3.47;;;;;;;;;;10366872;28;20083;-58
2022/11/14 03:11:38;;;;;;;7.57;4.00;;;;;;;;;;10366515;28;20038;-58
2022/11/14 03:16:38;;;;;;;6.35;3.67;;;;;;;;;;10365296;28;20034;-58
2022/11/14 03:21:39;;;;;;;4.22;3.75;;;;;;;;;;10366101;28;20033;-58
2022/11/14 03:26:39;;;;;;;4.85;3.95;;;;;;;;;;10365205;28;20382;-57
2022/11/14 03:31:40;;;;;;;4.07;3.30;;;;;;;;;;10313063;23;20110;-61
2022/11/14 03:36:41;;;;;;;3.95;3.58;;;;;;;;;;10284390;28;20030;-61
2022/11/14 03:41:41;;;;;;;3.50;3.20;;;;;;;;;;10309193;28;20062;-61
2022/11/14 03:46:42;;;;;;;3.70;3.30;;;;;;;;;;10325512;28;20062;-61
2022/11/14 03:51:42;;;;;;;3.80;3.40;;;;;;;;;;10324392;28;20041;-62
2022/11/14 03:56:43;;;;;;;4.10;3.55;;;;;;;;;;10324418;28;20022;-62
2022/11/14 04:01:43;;;;;;;4.03;3.42;;;;;;;;;;10322857;28;20489;-62
2022/11/14 04:06:44;;;;;;;3.33;3.05;;;;;;;;;;10325546;28;20042;-62
2022/11/14 04:11:45;;;;;;;3.88;3.50;;;;;;;;;;10324381;28;20049;-62
2022/11/14 04:16:46;;;;;;;3.28;2.97;;;;;;;;;;10325026;28;20034;-63
2022/11/14 04:21:46;;;;;;;4.72;3.67;;;;;;;;;;10324533;28;20118;-62
2022/11/14 04:26:47;;;;;;;4.60;3.33;;;;;;;;;;10323706;28;20084;-62
2022/11/14 04:31:47;;;;;;;3.83;3.53;;;;;;;;;;10322689;28;20050;-62
2022/11/14 04:36:50;;;;;;;4.53;3.33;;;;;;;;;;10324317;28;20964;-62
2022/11/14 04:41:50;;;;;;;3.95;3.60;;;;;;;;;;10323828;28;20023;-62
2022/11/14 04:46:51;;;;;;;4.00;3.60;;;;;;;;;;10322846;28;20034;-62
2022/11/14 04:51:51;;;;;;;5.03;3.42;;;;;;;;;;10324469;28;20480;-62
2022/11/14 04:56:52;;;;;;;5.25;3.10;;;;;;;;;;10331965;28;20081;-63
2022/11/14 05:01:52;;;;;;;5.90;3.40;;;;;;;;;;10327044;28;20273;-62
2022/11/14 05:06:53;;;;;;;3.92;3.20;;;;;;;;;;10326734;28;20042;-62
2022/11/14 05:11:54;;;;;;;3.20;2.92;;;;;;;;;;10330267;28;20394;-62
2022/11/14 05:16:54;;;;;;;3.63;3.22;;;;;;;;;;10327614;28;20447;-62
2022/11/14 05:21:55;;;;;;;3.92;3.10;;;;;;;;;;10330071;28;20080;-62
2022/11/14 05:26:55;;;;;;;3.33;3.03;;;;;;;;;;10330400;28;20042;-62
2022/11/14 05:31:56;;;;;;;3.58;3.20;;;;;;;;;;10329168;28;20043;-62
2022/11/14 05:36:57;;;;;;;3.05;2.85;;;;;;;;;;10327604;28;20374;-62
2022/11/14 05:41:58;;;;;;;3.40;3.00;;;;;;;;;;10329165;28;20081;-62
2022/11/14 05:46:58;;;;;;;3.22;2.95;;;;;;;;;;10325720;28;20034;-62
2022/11/14 05:51:59;;;;;;;3.17;2.92;;;;;;;;;;10329293;28;20030;-62
2022/11/14 05:56:59;;;;;;;3.67;2.90;;;;;;;;;;10328978;28;20038;-61
2022/11/14 06:02:00;;;;;;;3.17;2.88;;;;;;;;;;10326337;28;20034;-62
2022/11/14 06:07:00;;;;;;;4.55;3.13;;;;;;;;;;10320133;28;20132;-61
2022/11/14 06:12:04;;;;;;;3.50;3.17;;;;;;;;;;10326198;28;20034;-61
2022/11/14 06:17:05;;;;;;;4.70;3.13;;;;;;;;;;10327974;28;20106;-62
2022/11/14 06:22:06;;;;;;;8.88;3.22;;;;;;;;;;10315493;28;20026;-63
2022/11/14 06:27:06;;;;;;;3.40;3.10;;;;;;;;;;10323975;28;20088;-62
2022/11/14 06:32:07;;;;;;;7.32;3.40;;;;;;;;;;10315053;28;20042;-62
2022/11/14 06:37:07;;;;;;;4.50;3.10;;;;;;;;;;10315477;28;20031;-62
2022/11/14 06:42:08;;;;;;;4.72;2.90;;;;;;;;;;10323870;28;20027;-62
2022/11/14 06:47:09;;;;;;;3.88;3.30;;;;;;;;;;10324482;28;20474;-61
2022/11/14 06:52:09;;;;;;;9.25;3.70;;;;;;;;;;10325390;28;20438;-60
2022/11/14 06:57:10;;;;;;;6.82;3.55;;;;;;;;;;10321776;28;20114;-62
2022/11/14 07:02:12;;;;;;;17.40;4.50;;;;;;;;;;10322781;28;20026;-62
2022/11/14 07:07:12;;;;;;;7.25;3.85;;;;;;;;;;10314312;28;20092;-62
2022/11/14 07:12:13;;;;;;;10.35;4.10;;;;;;;;;;10315241;28;20026;-62
2022/11/14 07:17:13;;;;;;;10.10;4.30;;;;;;;;;;10325961;28;20030;-62
2022/11/14 07:22:14;;;;;;;11.55;3.92;;;;;;;;;;10318978;28;20031;-62
2022/11/14 07:27:14;;;;;;;5.68;3.58;;;;;;;;;;10310297;28;20036;-62
2022/11/14 07:32:15;;;;;;;6.95;3.92;;;;;;;;;;10326404;28;20088;-62
2022/11/14 07:37:15;;;;;;;9.05;3.67;;;;;;;;;;10325947;28;20033;-62
2022/11/14 07:42:16;;;;;;;11.38;3.88;;;;;;;;;;10325603;28;20022;-62
2022/11/14 07:47:16;;;;;;;14.48;4.47;;;;;;;;;;10325430;28;20051;-62
2022/11/14 07:52:17;;;;;;;10.20;4.60;;;;;;;;;;10326218;28;20018;-62
2022/11/14 07:57:18;;;;;;;12.55;3.80;;;;;;;;;;10325239;28;20336;-62
2022/11/14 08:02:18;;;;;;;6.90;3.80;;;;;;;;;;10325803;28;20477;-62
2022/11/14 08:07:19;;;;;;;8.60;3.88;;;;;;;;;;10314696;28;20053;-62
2022/11/14 08:12:19;;;;;;;6.15;3.97;;;;;;;;;;10325095;28;20130;-62
2022/11/14 08:17:21;;;;;;;6.47;3.47;;;;;;;;;;10319642;28;20034;-62
2022/11/14 08:22:22;;;;;;;6.80;3.80;;;;;;;;;;10323983;28;20029;-62
2022/11/14 08:27:24;;;;;;;4.45;3.50;;;;;;;;;;10325671;28;20406;-62
2022/11/14 08:32:24;;;;;;;3.70;3.35;;;;;;;;;;10306609;28;20054;-62
2022/11/14 08:37:25;;;;;;;5.72;3.33;;;;;;;;;;10323958;28;20030;-61
2022/11/14 08:42:25;;;;;;;5.43;3.45;;;;;;;;;;10329585;28;20045;-61
2022/11/14 08:47:26;;;;;;;7.78;3.58;;;;;;;;;;10323717;28;20038;-63
2022/11/14 08:52:26;;;;;;;7.03;3.40;;;;;;;;;;10330283;28;20031;-62
2022/11/14 08:57:27;;;;;;;4.53;3.33;;;;;;;;;;10331702;28;20022;-63
2022/11/14 09:02:28;;;;;;;5.00;3.58;;;;;;;;;;10331355;28;20035;-62
2022/11/14 09:07:28;;;;;;;7.03;3.60;;;;;;;;;;10329714;28;20026;-62
2022/11/14 09:12:29;;;;;;;8.40;3.33;;;;;;;;;;10330029;28;20072;-62
2022/11/14 09:17:29;;;;;;;4.60;3.35;;;;;;;;;;10331257;28;20030;-63
2022/11/14 09:22:30;;;;;;;5.60;3.38;;;;;;;;;;10326261;28;20084;-62
2022/11/14 09:27:31;;;;;;;5.47;3.65;;;;;;;;;;10343959;28;20069;-63
2022/11/14 09:32:31;;;;;;;4.35;3.17;;;;;;;;;;10317143;28;20254;-63
2022/11/14 09:37:32;;;;;;;4.75;3.22;;;;;;;;;;10317006;28;20027;-62
2022/11/14 09:42:47;;;;;;;5.32;3.40;;;;;;;;;;10329716;28;20091;-63
2022/11/14 09:48:00;;;;;;;3.55;3.25;;;;;;;;;;10321922;28;20114;-63
2022/11/14 09:53:20;;;;;;;4.90;3.30;;;;;;;;;;10313593;28;20037;-62
2022/11/14 09:58:21;;;;;;;7.30;3.80;;;;;;;;;;10328074;28;20026;-63
2022/11/14 10:03:52;;;;;;;7.85;3.47;;;;;;;;;;10328350;28;20034;-63
2022/11/14 10:09:36;;;;;;;4.90;3.05;;;;;;;;;;10316622;28;20187;-62
2022/11/14 10:15:08;;;;;;;3.75;3.35;;;;;;;;;;10317052;28;20441;-63
2022/11/14 10:20:45;;;;;;;5.85;3.35;;;;;;;;;;10328332;28;20125;-62
2022/11/14 10:26:12;;;;;;;4.70;3.47;;;;;;;;;;10316144;28;20038;-63
2022/11/14 10:31:42;;;;;;;3.40;3.10;;;;;;;;;;10312584;28;20045;-63
2022/11/14 10:37:16;;;;;;;3.30;3.00;;;;;;;;;;10320476;28;20121;-62
2022/11/14 10:42:47;;;;;;;4.20;3.22;;;;;;;;;;10310271;28;20030;-62
2022/11/14 10:48:02;;;;;;;3.67;3.03;;;;;;;;;;10309753;28;20272;-63
2022/11/14 10:53:13;;;;;;;4.40;3.20;;;;;;;;;;10314387;28;20037;-62
2022/11/14 10:58:14;;;;;;;4.65;3.58;;;;;;;;;;10303022;28;20022;-62
2022/11/14 11:03:15;;;;;;;3.28;2.92;;;;;;;;;;10314823;28;20514;-63
2022/11/14 11:13:54;;;;;;;3.38;2.60;;;;;;;;;;10318511;28;20486;-62
2022/11/14 11:19:24;;;;;;;4.05;2.97;;;;;;;;;;10313368;28;20040;-62
2022/11/14 11:24:36;;;;;;;3.55;2.97;;;;;;;;;;10304511;28;20390;-62
2022/11/14 11:29:38;;;;;;;4.25;2.90;;;;;;;;;;10293780;28;20034;-63
2022/11/14 11:34:39;;;;;;;3.92;2.92;;;;;;;;;;10311355;28;20192;-63
2022/11/14 11:39:49;;;;;;;2.92;2.63;;;;;;;;;;10321624;28;20158;-62
2022/11/14 11:44:57;;;;;;;3.38;3.08;;;;;;;;;;10308333;28;20072;-62
2022/11/14 11:50:01;;;;;;;5.27;2.90;;;;;;;;;;10322339;28;20505;-62
2022/11/14 11:55:07;;;;;;;3.85;2.85;;;;;;;;;;10323181;28;20038;-63
2022/11/14 12:00:20;;;;;;;3.28;2.97;;;;;;;;;;10324941;28;20096;-62
2022/11/14 12:05:43;;;;;;;4.72;3.10;;;;;;;;;;10347745;28;20096;-62
2022/11/14 12:10:44;;;;;;;3.70;3.10;;;;;;;;;;10321434;28;20027;-62
2022/11/14 12:16:17;;;;;;;3.22;2.53;;;;;;;;;;10332220;28;20517;-62
2022/11/14 12:22:04;;;;;;;4.85;3.38;;;;;;;;;;10331787;28;20430;-63
2022/11/14 12:27:10;;;;;;;3.33;2.55;;;;;;;;;;10332463;28;20026;-63
2022/11/14 12:32:18;;;;;;;3.00;2.70;;;;;;;;;;10326079;28;20050;-63
2022/11/14 12:37:37;;;;;;;4.07;2.70;;;;;;;;;;10337012;28;20494;-63
2022/11/14 12:42:49;;;;;;;7.15;3.05;;;;;;;;;;10322800;28;20051;-62
2022/11/14 12:48:21;;;;;;;3.08;2.72;;;;;;;;;;10322362;28;20269;-62
2022/11/14 12:53:36;;;;;;;3.10;2.53;;;;;;;;;;10329916;28;20038;-62
2022/11/14 12:58:55;;;;;;;7.93;3.20;;;;;;;;;;10326045;28;20117;-62
2022/11/14 13:04:16;;;;;;;3.20;2.88;;;;;;;;;;10328318;28;20030;-62
2022/11/14 13:09:40;;;;;;;3.03;2.53;;;;;;;;;;10330555;28;20390;-62
2022/11/14 13:25:39;;;;;;;3.25;2.60;;;;;;;;;;10330517;28;20038;-62
2022/11/14 13:31:15;;;;;;;3.35;2.70;;;;;;;;;;10329178;28;20047;-62
2022/11/14 13:36:15;;;;;;;3.78;2.95;;;;;;;;;;10328620;28;20034;-62
2022/11/14 13:41:49;;;;;;;2.85;2.50;;;;;;;;;;10328892;28;20022;-62
2022/11/14 13:47:16;;;;;;;3.95;2.80;;;;;;;;;;10326209;28;20034;-62
2022/11/14 13:52:18;;;;;;;3.67;2.50;;;;;;;;;;10325581;28;20034;-62
2022/11/14 13:58:16;;;;;;;3.20;2.63;;;;;;;;;;10326584;28;20049;-62
2022/11/14 14:04:07;;;;;;;3.43;2.73;;;;;;;;;;10327864;28;20373;-62
2022/11/14 14:09:32;;;;;;;4.55;2.25;;;;;;;;;;10312096;28;20045;-62
2022/11/14 14:15:02;;;;;;;2.70;2.40;;;;;;;;;;10322878;28;20023;-63
2022/11/14 14:20:24;;;;;;;3.92;3.05;;;;;;;;;;10326619;28;20056;-63
2022/11/14 14:25:43;;;;;;;6.78;2.63;;;;;;;;;;10313402;28;20219;-63
2022/11/14 14:31:09;;;;;;;9.88;2.80;;;;;;;;;;10321298;28;20042;-63
2022/11/14 14:36:28;;;;;;;3.15;2.70;;;;;;;;;;10327279;28;20070;-63
2022/11/14 14:41:31;;;;;;;4.75;2.90;;;;;;;;;;10327374;28;20045;-63
2022/11/14 14:46:32;;;;;;;4.57;2.80;;;;;;;;;;10327352;28;20100;-63
2022/11/14 14:51:36;;;;;;;3.75;2.55;;;;;;;;;;10327342;28;20505;-63
2022/11/14 14:56:37;;;;;;;4.28;2.30;;;;;;;;;;10326968;28;20050;-62
2022/11/14 15:01:38;;;;;;;3.10;2.70;;;;;;;;;;10326785;28;20034;-63
2022/11/14 15:06:39;;;;;;;4.55;2.78;;;;;;;;;;10326840;28;20117;-63
2022/11/14 15:11:43;;;;;;;2.50;2.30;;;;;;;;;;10326663;28;20027;-63
2022/11/14 15:16:48;;;;;;;2.83;2.25;;;;;;;;;;10325211;28;20389;-63
2022/11/14 15:22:20;;;;;;;2.92;2.28;;;;;;;;;;10326078;28;20561;-63
2022/11/14 15:27:21;;;;;;;3.20;2.47;;;;;;;;;;10304894;28;20030;-63
2022/11/14 15:32:24;;;;;;;2.80;2.50;;;;;;;;;;10320025;28;20054;-63
2022/11/14 15:37:24;;;;;;;3.30;2.58;;;;;;;;;;10324431;28;20022;-63
2022/11/14 15:42:27;;;;;;;2.40;2.20;;;;;;;;;;10324548;28;20023;-63
2022/11/14 15:47:35;;;;;;;3.13;2.45;;;;;;;;;;10323982;28;20429;-63
2022/11/14 15:52:51;;;;;;;2.28;2.08;;;;;;;;;;10323480;28;20054;-63
2022/11/14 15:57:51;;;;;;;2.25;2.05;;;;;;;;;;10302714;28;20078;-63
2022/11/14 16:02:56;;;;;;;6.85;2.60;;;;;;;;;;10294627;28;20113;-63
2022/11/14 16:07:57;;;;;;;6.50;2.63;;;;;;;;;;10302562;28;20482;-63
2022/11/14 16:12:57;;;;;;;2.85;2.00;;;;;;;;;;10325013;28;20026;-63
2022/11/14 16:17:58;;;;;;;3.30;2.50;;;;;;;;;;10325738;28;20390;-63
2022/11/14 16:22:58;;;;;;;3.42;2.38;;;;;;;;;;10319884;28;20474;-63
2022/11/14 16:27:59;;;;;;;2.80;2.35;;;;;;;;;;10313734;28;20073;-63
2022/11/14 16:32:59;;;;;;;2.65;2.13;;;;;;;;;;10316840;28;20039;-63
2022/11/14 16:38:00;;;;;;;3.78;2.92;;;;;;;;;;10324059;28;20033;-63
2022/11/14 16:43:02;;;;;;;2.72;2.42;;;;;;;;;;10318146;28;20043;-63
2022/11/14 16:48:02;;;;;;;2.95;2.40;;;;;;;;;;10296077;28;20058;-63
2022/11/14 16:53:03;;;;;;;14.30;2.63;;;;;;;;;;10305034;28;20019;-62
2022/11/14 16:58:03;;;;;;;4.55;2.47;;;;;;;;;;10303253;28;20041;-62
2022/11/14 17:03:04;;;;;;;9.32;2.47;;;;;;;;;;10303522;28;20035;-62
2022/11/14 17:08:05;;;;;;;4.88;2.30;;;;;;;;;;10305009;28;20034;-63
2022/11/14 17:13:05;;;;;;;5.13;2.20;;;;;;;;;;10298069;28;20085;-62
2022/11/14 17:18:06;;;;;;;2.55;2.17;;;;;;;;;;10298630;28;20026;-62
2022/11/14 17:23:06;;;;;;;3.05;2.40;;;;;;;;;;10303474;28;20034;-62
2022/11/14 17:28:07;;;;;;;3.22;2.53;;;;;;;;;;10311336;28;20047;-62
2022/11/14 17:33:08;;;;;;;4.93;2.50;;;;;;;;;;10322973;28;20272;-62
2022/11/14 17:38:09;;;;;;;2.55;2.22;;;;;;;;;;10329817;28;20433;-62
2022/11/14 17:43:09;;;;;;;3.63;2.30;;;;;;;;;;10328299;28;20026;-62
2022/11/14 17:48:11;;;;;;;3.03;2.50;;;;;;;;;;10334267;28;20041;-62
2022/11/14 17:53:12;;;;;;;3.40;2.60;;;;;;;;;;10326882;28;20034;-62
2022/11/14 17:58:13;;;;;;;6.50;2.88;;;;;;;;;;10319766;28;20030;-62
2022/11/14 18:03:14;;;;;;;5.55;2.78;;;;;;;;;;10329817;28;20022;-62
2022/11/14 18:08:14;;;;;;;2.95;2.65;;;;;;;;;;10326534;28;20042;-62
2022/11/14 18:13:15;;;;;;;11.77;2.90;;;;;;;;;;10328043;28;20041;-62
2022/11/14 18:18:18;;;;;;;4.65;2.95;;;;;;;;;;10327802;28;20026;-62
2022/11/14 18:23:18;;;;;;;5.28;2.78;;;;;;;;;;10292560;28;20057;-62
2022/11/14 18:28:19;;;;;;;7.93;2.72;;;;;;;;;;10298311;28;20546;-62
2022/11/14 18:33:20;;;;;;;3.22;2.65;;;;;;;;;;10315761;28;20038;-62
2022/11/14 18:38:20;;;;;;;6.15;3.30;;;;;;;;;;10319733;28;20031;-61
2022/11/14 18:43:21;;;;;;;3.40;3.10;;;;;;;;;;10328177;28;20053;-61
2022/11/14 18:48:22;;;;;;;13.25;3.30;;;;;;;;;;10322831;28;20026;-62
2022/11/14 18:53:23;;;;;;;5.30;3.83;;;;;;;;;;10325341;28;20482;-61
2022/11/14 18:58:24;;;;;;;4.88;3.10;;;;;;;;;;10312009;28;20030;-61
2022/11/14 19:03:24;;;;;;;4.43;3.30;;;;;;;;;;10323240;28;20069;-62
2022/11/14 19:08:25;;;;;;;8.75;3.47;;;;;;;;;;10317993;28;20038;-61
2022/11/14 19:13:25;;;;;;;8.02;3.90;;;;;;;;;;10322278;28;20278;-61
2022/11/14 19:18:26;;;;;;;7.10;3.28;;;;;;;;;;10311175;28;20023;-61
2022/11/14 19:23:27;;;;;;;5.18;3.10;;;;;;;;;;10323207;28;20022;-60
2022/11/14 19:28:28;;;;;;;5.32;2.80;;;;;;;;;;10328982;28;20054;-59
2022/11/14 19:33:29;;;;;;;11.30;3.63;;;;;;;;;;10323974;28;20041;-60
2022/11/14 19:38:30;;;;;;;7.72;2.95;;;;;;;;;;10320745;28;20030;-60
2022/11/14 19:43:30;;;;;;;6.90;3.35;;;;;;;;;;10325526;28;20057;-60
2022/11/14 19:48:33;;;;;;;5.40;3.50;;;;;;;;;;10323253;28;20030;-61
2022/11/14 19:53:35;;;;;;;11.07;4.53;;;;;;;;;;10330693;28;20022;-60
2022/11/14 19:58:38;;;;;;;8.50;3.60;;;;;;;;;;10312428;28;20462;-62
2022/11/14 20:03:39;;;;;;;20.35;4.65;;;;;;;;;;10309884;28;20038;-56
2022/11/14 20:08:39;;;;;;;13.50;4.70;;;;;;;;;;10307714;28;20502;-58
2022/11/14 20:13:43;;;;;;;16.00;5.07;;;;;;;;;;10320612;28;20030;-57
2022/11/14 20:18:48;;;;;;;9.10;4.55;;;;;;;;;;10307215;28;20504;-59
2022/11/14 20:23:49;;;;;;;6.88;4.00;;;;;;;;;;10288762;28;20081;-60
2022/11/14 20:28:51;;;;;;;8.68;4.97;;;;;;;;;;10292902;28;20514;-60
2022/11/14 20:33:53;;;;;;;9.68;4.32;;;;;;;;;;10292436;28;20553;-59
2022/11/14 20:38:55;;;;;;;8.95;4.85;;;;;;;;;;10293089;28;20026;-59
2022/11/14 20:43:55;;;;;;;13.57;4.70;;;;;;;;;;10293336;28;20283;-59
2022/11/14 20:48:56;;;;;;;12.18;4.75;;;;;;;;;;10293037;28;20290;-59
2022/11/14 20:53:56;;;;;;;12.73;5.30;;;;;;;;;;10294072;28;20046;-60
2022/11/14 20:58:57;;;;;;;8.23;5.13;;;;;;;;;;10293855;28;20030;-59
2022/11/14 21:03:57;;;;;;;10.52;5.10;;;;;;;;;;10291821;28;20031;-59
2022/11/14 21:08:58;;;;;;;10.18;4.70;;;;;;;;;;10291953;28;20038;-59
2022/11/14 21:13:59;;;;;;;8.75;4.80;;;;;;;;;;10291390;28;20023;-60
2022/11/14 21:19:00;;;;;;;8.55;5.15;;;;;;;;;;10291993;28;20035;-59
2022/11/14 21:24:01;;;;;;;7.95;4.80;;;;;;;;;;10292470;28;20030;-59
2022/11/14 21:29:06;;;;;;;13.15;5.15;;;;;;;;;;10291834;28;20052;-59
2022/11/14 21:34:11;;;;;;;10.00;5.18;;;;;;;;;;10291496;28;20113;-60
2022/11/14 21:39:13;;;;;;;8.77;5.05;;;;;;;;;;10291646;28;20034;-59
2022/11/14 21:44:16;;;;;;;10.93;4.75;;;;;;;;;;10292129;28;20023;-60
2022/11/14 21:49:17;;;;;;;7.38;5.32;;;;;;;;;;10291799;28;20035;-60
2022/11/14 21:54:17;;;;;;;10.65;5.53;;;;;;;;;;10291677;28;20027;-60
2022/11/14 21:59:20;;;;;;;7.55;4.60;;;;;;;;;;10290275;28;20382;-61
2022/11/14 22:04:21;;;;;;;9.95;5.35;;;;;;;;;;10290714;28;20114;-60
2022/11/14 22:09:21;;;;;;;11.60;5.32;;;;;;;;;;10289351;28;20038;-60
2022/11/14 22:14:22;;;;;;;8.48;5.45;;;;;;;;;;10289478;28;20034;-60
2022/11/14 22:19:23;;;;;;;7.35;5.20;;;;;;;;;;10289294;28;20031;-60
2022/11/14 22:24:24;;;;;;;8.70;5.43;;;;;;;;;;10288773;28;20470;-59
2022/11/14 22:29:24;;;;;;;8.40;4.85;;;;;;;;;;10288794;28;20313;-59
2022/11/14 22:34:25;;;;;;;17.05;5.97;;;;;;;;;;10289126;28;20035;-62
2022/11/14 22:39:25;;;;;;;9.00;5.13;;;;;;;;;;10289182;28;20030;-64
2022/11/14 22:44:26;;;;;;;9.77;5.72;;;;;;;;;;10288664;28;20046;-61
2022/11/14 22:49:27;;;;;;;14.95;6.30;;;;;;;;;;10288094;28;20482;-62
2022/11/14 22:54:27;;;;;;;10.88;5.85;;;;;;;;;;10289388;28;20402;-62
2022/11/14 22:59:28;;;;;;;9.88;5.18;;;;;;;;;;10288234;28;20438;-62
2022/11/14 23:04:29;;;;;;;6.72;4.75;;;;;;;;;;10288480;28;20019;-63
2022/11/14 23:09:29;;;;;;;8.25;5.18;;;;;;;;;;10288932;28;20282;-63
2022/11/14 23:14:30;;;;;;;12.65;5.05;;;;;;;;;;10288103;28;20058;-63
2022/11/14 23:19:30;;;;;;;8.93;5.13;;;;;;;;;;10288419;28;20034;-63
2022/11/14 23:24:31;;;;;;;11.65;5.25;;;;;;;;;;10288276;28;20038;-63
2022/11/14 23:29:31;;;;;;;6.70;4.65;;;;;;;;;;10287553;28;20050;-63
2022/11/14 23:34:32;;;;;;;9.75;4.65;;;;;;;;;;10288242;28;20029;-63
2022/11/14 23:39:32;;;;;;;7.57;4.88;;;;;;;;;;10288082;28;20063;-63
2022/11/14 23:44:33;;;;;;;8.80;5.35;;;;;;;;;;10288024;28;20525;-63
2022/11/14 23:49:34;;;;;;;7.90;4.60;;;;;;;;;;10287715;28;20483;-62
2022/11/14 23:54:34;;;;;;;12.20;5.47;;;;;;;;;;10287285;28;20497;-61
2022/11/14 23:59:35;;;;;;;7.15;4.85;;;;;;;;;;10286775;28;20534;-61
